Gunnedah, Australia

9:25 AM AEDT on December 03, 2016 (GMT +1100)
Bengalala | | Change Station

Elev 880 ft 30.88 °S, 150.25 °E | Updated 52 seconds ago

Clear
Clear
88.7 °F
Feels Like 86 °F
N
6.0
Wind Variable Wind from ESE
Gusts 14.0 mph

Today
High -- | Low -- °F
--% Chance of Precip.
Yesterday
High -- | Low -- °F
Precip. -- in
Pressure 29.95 in
Visibility 6.2 miles
Clouds
Heat Index 86 °F
Dew Point 51 °F
Humidity 27%
Rainfall 0.00 in
Snow Depth Not available.
5:47 AM 7:49 PM
Waxing Crescent, 10% visible
METAR YSTW 022200Z AUTO 13005KT 100V160 9999 // NCD 29/07 Q1014 RF00.0/000.0
Pressure 29.95 in
Visibility 6.2 miles
Clouds
Heat Index 86 °F
Dew Point 51 °F
Humidity 27%
Rainfall 0.00 in
Snow Depth Not available.
5:47 AM 7:49 PM
Waxing Crescent, 10% visible
METAR YSTW 022200Z AUTO 13005KT 100V160 9999 // NCD 29/07 Q1014 RF00.0/000.0

10-Day Weather Forecast

×

Almanac

Astronomy

Dec. 03, 2016 Rise Set
Actual Time
Civil Twilight
Nautical Twilight
Astronomical Twilight
Moon
Length of Visible Light
Length of Day
Tomorrow will be .
, % of the Moon is Illuminated

Today's Extremes

Country Highs Country Lows

Community

WunderPhotos

Upload Photos

1,955,376 photos uploaded!

WunderBlog® & News

Nearby

Air Quality

  Air Quality AQ Index Pollutant
Not available.

Snow Depth

Station Depth Elevation

Earthquake Activity

City Distance Mag. Time & Date
Minimum magnitude displayed is 2.5.

Coastal Water Temperatures

Place Temperature

Stations

Nearby Weather Stations

Station Location Temp. Windchill Dew Point Humidity Wind Precip. Elev Updated Type